createdAt,value
2019-01-12T00:39:01.379Z,3.00
2019-01-12T00:53:41.319Z,3.10
2019-01-12T01:00:29.761Z,3.10
2019-01-12T06:44:11.232Z,2.50
2019-01-12T07:12:29.959Z,2.70
2019-01-12T07:17:29.935Z,2.60
2019-01-12T07:20:01.354Z,2.60
2019-01-12T07:22:36.836Z,2.60
2019-01-12T07:25:07.815Z,2.60
2019-01-12T07:27:44.642Z,2.60
2019-01-12T07:30:36.576Z,2.70
2019-01-12T07:33:11.047Z,2.70
2019-01-12T07:35:46.462Z,2.70
2019-01-12T07:39:05.500Z,2.60
2019-01-12T07:41:36.409Z,2.70
2019-01-12T07:44:17.710Z,2.80
2019-01-12T07:47:08.729Z,2.80
2019-01-12T07:50:01.993Z,2.80
2019-01-12T07:52:35.036Z,2.80
2019-01-12T07:55:12.963Z,2.90
2019-01-12T13:59:29.478Z,3.50
2019-01-12T14:32:08.837Z,3.40
2019-01-12T14:35:38.915Z,3.50
2019-01-12T15:12:30.932Z,3.90
2019-01-12T19:10:07.281Z,4.10
2019-01-12T19:13:11.626Z,4.00
2019-01-12T19:19:40.922Z,4.00
2019-01-12T19:22:59.053Z,3.90
2019-01-12T19:28:48.772Z,3.90
2019-01-12T19:31:19.899Z,3.80
2019-01-12T19:34:02.146Z,3.80
2019-01-12T19:36:32.788Z,3.80
2019-01-12T19:39:37.337Z,3.80
2019-01-12T19:42:38.556Z,3.80
2019-01-12T19:48:21.230Z,3.80
2019-01-12T19:50:54.407Z,3.80
2019-01-12T19:53:25.358Z,3.80
2019-01-12T19:55:55.931Z,3.80
2019-01-12T20:00:56.572Z,3.80
2019-01-12T20:03:27.823Z,3.80
2019-01-12T20:08:28.072Z,3.70
2019-01-12T20:10:58.498Z,3.80
2019-01-12T20:13:28.899Z,3.70
2019-01-12T20:16:47.718Z,3.60
2019-01-12T20:19:42.784Z,3.60
2019-01-12T20:22:15.339Z,3.50
2019-01-12T20:27:15.591Z,3.50
2019-01-12T20:32:46.170Z,3.50
2019-01-12T20:35:35.215Z,3.40
2019-01-12T20:38:40.127Z,3.40
2019-01-12T20:41:46.915Z,3.50
2019-01-12T20:47:59.025Z,3.50
2019-01-12T20:51:07.800Z,3.50
2019-01-12T20:54:18.508Z,3.50
2019-01-12T20:57:29.075Z,3.50
2019-01-12T21:00:46.472Z,3.50
2019-01-12T21:04:07.676Z,3.50
2019-01-12T21:06:47.383Z,3.50
2019-01-12T21:09:46.399Z,3.50
2019-01-12T21:13:08.200Z,3.50
2019-01-12T21:16:00.038Z,3.40
2019-01-12T21:18:30.709Z,3.40
2019-01-12T21:21:01.315Z,3.50
2019-01-12T21:23:31.703Z,3.50
2019-01-12T21:26:02.040Z,3.40
2019-01-12T21:28:33.764Z,3.40
2019-01-12T21:31:04.100Z,3.40
2019-01-12T21:33:34.467Z,3.40
2019-01-12T21:36:05.439Z,3.40
2019-01-12T21:38:36.911Z,3.40
2019-01-12T21:41:07.292Z,3.50
2019-01-12T21:43:37.671Z,3.40
2019-01-12T21:46:08.037Z,3.40
2019-01-12T21:48:38.376Z,3.40
2019-01-12T21:51:08.729Z,3.40
2019-01-12T21:53:39.063Z,3.40
2019-01-12T21:56:09.427Z,3.30
2019-01-12T21:58:39.760Z,3.30
2019-01-12T22:01:10.196Z,3.40
2019-01-12T22:03:40.520Z,3.30
2019-01-12T22:06:10.884Z,3.20
2019-01-12T22:08:41.207Z,3.20
2019-01-12T22:11:11.547Z,3.20
2019-01-12T22:13:41.875Z,3.20
2019-01-12T22:16:12.207Z,3.20
2019-01-12T22:18:42.579Z,3.20
2019-01-12T22:23:42.547Z,3.20
2019-01-12T22:26:12.880Z,3.20
2019-01-12T22:28:43.243Z,3.30
2019-01-12T22:31:13.588Z,3.30
2019-01-12T22:33:43.955Z,3.20
2019-01-12T22:36:14.322Z,3.30
2019-01-12T22:38:44.764Z,3.30
2019-01-12T22:41:15.135Z,3.30
2019-01-12T22:43:45.467Z,3.30
2019-01-12T22:46:15.831Z,3.30
2019-01-12T22:48:46.171Z,3.30
2019-01-12T22:51:16.545Z,3.30
2019-01-12T22:53:46.880Z,3.30
2019-01-12T22:56:17.219Z,3.40
2019-01-12T22:58:47.560Z,3.40
2019-01-12T23:01:44.400Z,3.40
2019-01-12T23:06:45.075Z,3.50
2019-01-12T23:09:15.414Z,3.40
2019-01-12T23:15:15.029Z,3.60
2019-01-12T23:17:47.037Z,3.60
2019-01-12T23:20:17.499Z,3.60
2019-01-12T23:22:47.827Z,3.60
2019-01-12T23:25:22.761Z,3.60
2019-01-12T23:28:34.347Z,3.70
2019-01-12T23:33:35.764Z,3.70
2019-01-12T23:36:06.406Z,3.70
2019-01-12T23:38:36.791Z,3.60
2019-01-12T23:41:07.172Z,3.60
2019-01-12T23:43:37.543Z,3.60
2019-01-12T23:46:07.915Z,3.50
2019-01-12T23:48:38.292Z,3.40
2019-01-12T23:53:38.664Z,3.50
2019-01-12T23:58:38.615Z,3.60
